createdAt,value
2022-11-19T00:00:49.869Z,39.72
2022-11-19T00:03:18.703Z,38.28
2022-11-19T00:05:47.215Z,35.20
2022-11-19T00:08:18.040Z,34.90
2022-11-19T00:10:45.488Z,34.67
2022-11-19T00:13:13.451Z,34.83
2022-11-19T00:15:40.257Z,36.17
2022-11-19T00:18:07.203Z,35.63
2022-11-19T00:20:35.086Z,30.02
2022-11-19T00:23:01.670Z,28.77
2022-11-19T00:25:29.965Z,32.58
2022-11-19T00:27:57.508Z,31.08
2022-11-19T00:30:46.934Z,30.95
2022-11-19T00:33:10.743Z,30.95
2022-11-19T00:35:37.236Z,30.52
2022-11-19T00:38:03.750Z,30.90
2022-11-19T00:40:30.219Z,29.52
2022-11-19T00:43:15.410Z,29.17
2022-11-19T00:45:44.437Z,30.05
2022-11-19T00:48:11.124Z,29.52
2022-11-19T00:50:37.639Z,30.48
2022-11-19T00:53:04.191Z,29.70
2022-11-19T00:55:30.920Z,29.70
2022-11-19T00:57:57.398Z,28.95
2022-11-19T01:00:23.872Z,31.15
2022-11-19T01:02:50.403Z,29.08
2022-11-19T01:05:16.891Z,30.02
2022-11-19T01:07:43.464Z,31.38
2022-11-19T01:10:10.192Z,30.30
2022-11-19T01:12:56.667Z,33.63
2022-11-19T01:15:23.181Z,34.80
2022-11-19T01:17:49.666Z,33.42
2022-11-19T01:20:16.376Z,33.63
2022-11-19T01:22:43.176Z,33.78
2022-11-19T01:25:09.804Z,36.42
2022-11-19T01:27:36.291Z,39.38
2022-11-19T01:30:02.949Z,35.50
2022-11-19T01:32:29.501Z,36.05
2022-11-19T01:34:55.998Z,35.40
2022-11-19T01:37:22.665Z,37.53
2022-11-19T01:39:49.177Z,37.42
2022-11-19T01:42:43.559Z,34.53
2022-11-19T01:45:27.436Z,39.25
2022-11-19T01:47:55.535Z,34.78
2022-11-19T01:50:23.274Z,37.55
2022-11-19T01:52:50.949Z,36.22
2022-11-19T01:55:18.662Z,31.77
2022-11-19T01:57:45.256Z,36.65
2022-11-19T02:00:12.675Z,33.25
2022-11-19T02:02:39.229Z,30.40
2022-11-19T02:05:06.185Z,33.00
2022-11-19T02:07:34.020Z,32.13
2022-11-19T02:10:03.483Z,31.98
2022-11-19T02:12:32.829Z,29.13
2022-11-19T02:15:06.103Z,27.70
2022-11-19T02:17:44.744Z,28.73
2022-11-19T02:20:35.341Z,32.53
2022-11-19T02:23:10.854Z,27.83
2022-11-19T02:25:59.080Z,28.35
2022-11-19T02:28:51.437Z,31.00
2022-11-19T02:31:24.078Z,32.58
2022-11-19T02:34:08.891Z,31.65
2022-11-19T02:36:45.668Z,36.72
2022-11-19T02:39:14.904Z,34.45
2022-11-19T02:42:00.301Z,31.90
2022-11-19T02:44:48.899Z,38.70
2022-11-19T02:47:18.873Z,38.90
2022-11-19T02:49:45.878Z,35.05
2022-11-19T02:52:14.281Z,40.20
2022-11-19T02:54:40.801Z,42.30
2022-11-19T02:57:10.227Z,39.25
2022-11-19T03:00:04.975Z,42.60
2022-11-19T03:02:56.072Z,37.08
2022-11-19T03:05:27.693Z,38.70
2022-11-19T03:07:54.256Z,40.60
2022-11-19T03:10:23.146Z,35.33
2022-11-19T03:13:28.170Z,37.78
2022-11-19T03:16:14.910Z,41.35
2022-11-19T03:18:59.498Z,44.15
2022-11-19T03:21:48.831Z,43.33
2022-11-19T03:24:24.302Z,44.70
2022-11-19T03:26:55.762Z,45.95
2022-11-19T03:29:23.670Z,47.47
2022-11-19T03:31:56.625Z,42.35
2022-11-19T03:34:23.339Z,45.97
2022-11-19T03:36:51.403Z,49.20
2022-11-19T03:39:19.266Z,53.15
2022-11-19T03:41:49.214Z,52.60
2022-11-19T03:44:24.571Z,58.95
2022-11-19T03:47:05.200Z,53.55
2022-11-19T03:49:34.953Z,54.15
2022-11-19T03:52:07.754Z,53.58
2022-11-19T03:54:34.492Z,53.58
2022-11-19T03:57:01.406Z,49.45
2022-11-19T03:59:30.116Z,51.20
2022-11-19T04:01:59.116Z,50.42
2022-11-19T04:04:37.791Z,55.90
2022-11-19T04:07:07.838Z,59.80
2022-11-19T04:09:34.611Z,54.08
2022-11-19T04:12:01.596Z,60.55
2022-11-19T04:14:28.226Z,55.45
2022-11-19T04:16:54.752Z,55.33
2022-11-19T04:19:21.576Z,56.88
2022-11-19T04:21:48.329Z,59.42
2022-11-19T04:24:15.349Z,56.05
2022-11-19T04:26:42.045Z,58.30
2022-11-19T04:29:08.666Z,58.13
2022-11-19T04:31:35.179Z,52.25
2022-11-19T04:34:01.835Z,54.75
2022-11-19T04:36:29.229Z,54.53
2022-11-19T04:38:55.703Z,52.75
2022-11-19T04:41:22.984Z,51.50
2022-11-19T04:43:49.468Z,54.20
2022-11-19T04:46:15.950Z,59.67
2022-11-19T04:48:42.446Z,50.53
2022-11-19T04:51:08.887Z,47.70
2022-11-19T04:53:35.512Z,53.83
2022-11-19T04:56:02.307Z,56.58
2022-11-19T04:58:28.846Z,47.38
2022-11-19T05:00:55.362Z,49.28
2022-11-19T05:03:21.932Z,47.42
2022-11-19T05:05:48.510Z,50.78
2022-11-19T05:08:15.012Z,52.20
2022-11-19T05:10:41.515Z,52.70
2022-11-19T05:13:07.987Z,56.13
2022-11-19T05:15:34.494Z,53.75
2022-11-19T05:18:01.015Z,53.47
2022-11-19T05:20:27.782Z,57.00
2022-11-19T05:22:54.363Z,51.47
2022-11-19T05:25:20.871Z,52.40
2022-11-19T05:27:47.402Z,55.80
2022-11-19T05:30:14.030Z,51.25
2022-11-19T05:32:40.683Z,52.63
2022-11-19T05:35:07.667Z,51.72
2022-11-19T05:37:34.316Z,51.63
2022-11-19T05:40:01.028Z,55.17
2022-11-19T05:42:27.536Z,51.58
2022-11-19T05:44:54.080Z,51.33
2022-11-19T05:47:20.610Z,53.03
2022-11-19T05:49:47.128Z,55.20
2022-11-19T05:52:14.468Z,58.03
2022-11-19T05:54:40.994Z,55.83
2022-11-19T05:57:07.452Z,55.72
2022-11-19T05:59:33.926Z,62.30
2022-11-19T06:02:00.401Z,66.10
2022-11-19T06:04:27.054Z,55.67
2022-11-19T06:06:53.492Z,64.85
2022-11-19T06:09:20.093Z,61.78
2022-11-19T06:11:50.480Z,63.15
2022-11-19T06:14:19.238Z,63.20
2022-11-19T06:16:45.740Z,57.97
2022-11-19T06:19:12.265Z,62.70
2022-11-19T06:21:38.920Z,60.65
2022-11-19T06:24:05.961Z,58.75
2022-11-19T06:26:32.456Z,60.17
2022-11-19T06:28:58.994Z,56.65
2022-11-19T06:31:25.581Z,65.68
2022-11-19T06:33:53.679Z,64.32
2022-11-19T06:36:20.908Z,58.17
2022-11-19T06:38:47.468Z,50.88
2022-11-19T06:41:14.365Z,54.85
2022-11-19T06:43:41.196Z,50.88
2022-11-19T06:46:07.707Z,52.85
2022-11-19T06:48:34.188Z,51.75
2022-11-19T06:51:01.763Z,52.85
2022-11-19T06:53:28.918Z,52.22
2022-11-19T06:55:59.539Z,48.45
2022-11-19T06:58:26.659Z,53.10
2022-11-19T07:00:53.427Z,53.28
2022-11-19T07:03:20.289Z,50.10
2022-11-19T07:05:47.950Z,50.35
2022-11-19T07:08:15.135Z,56.65
2022-11-19T07:10:42.040Z,55.83
2022-11-19T07:13:08.578Z,45.75
2022-11-19T07:15:35.137Z,47.00
2022-11-19T07:18:02.100Z,48.88
2022-11-19T07:20:28.874Z,51.90
2022-11-19T07:22:59.137Z,47.15
2022-11-19T07:25:26.721Z,45.60
2022-11-19T07:27:53.265Z,51.70
2022-11-19T07:30:19.852Z,49.97
2022-11-19T07:32:46.392Z,47.05
2022-11-19T07:35:13.027Z,52.25
2022-11-19T07:37:39.522Z,49.70
2022-11-19T07:40:06.777Z,55.35
2022-11-19T07:42:51.580Z,49.40
2022-11-19T07:45:19.216Z,47.83
2022-11-19T07:47:45.758Z,52.25
2022-11-19T07:50:12.974Z,46.45
2022-11-19T07:52:39.762Z,47.40
2022-11-19T07:55:07.046Z,49.42
2022-11-19T07:57:33.585Z,51.63
2022-11-19T08:00:00.102Z,52.28
2022-11-19T08:02:26.814Z,52.28
2022-11-19T08:04:53.274Z,51.65
2022-11-19T08:07:20.044Z,48.65
2022-11-19T08:09:46.616Z,54.53
2022-11-19T08:12:13.342Z,51.72
2022-11-19T08:14:39.813Z,47.33
2022-11-19T08:17:25.166Z,49.22
2022-11-19T08:19:51.606Z,54.20
2022-11-19T08:22:18.116Z,53.38
2022-11-19T08:24:44.830Z,52.97
2022-11-19T08:27:11.302Z,55.20
2022-11-19T08:29:37.918Z,56.17
2022-11-19T08:32:04.600Z,53.50
2022-11-19T08:34:32.205Z,48.88
2022-11-19T08:36:58.692Z,50.25
2022-11-19T08:39:25.144Z,51.72
2022-11-19T08:42:10.154Z,48.63
2022-11-19T08:44:36.656Z,48.72
2022-11-19T08:47:03.232Z,45.47
2022-11-19T08:49:29.714Z,47.85
2022-11-19T08:51:57.577Z,51.80
2022-11-19T08:54:24.196Z,47.38
2022-11-19T08:56:51.068Z,46.25
2022-11-19T08:59:17.906Z,48.00
2022-11-19T09:01:44.557Z,43.75
2022-11-19T09:04:11.174Z,47.60
2022-11-19T09:06:37.659Z,45.63
2022-11-19T09:09:04.646Z,43.20
2022-11-19T09:11:31.146Z,40.80
2022-11-19T09:13:58.121Z,42.13
2022-11-19T09:16:24.809Z,43.58
2022-11-19T09:18:51.287Z,43.20
2022-11-19T09:21:17.842Z,44.90
2022-11-19T09:23:44.595Z,43.53
2022-11-19T09:26:18.406Z,43.80
2022-11-19T09:28:45.757Z,46.67
2022-11-19T09:31:14.746Z,41.63
2022-11-19T09:33:43.582Z,42.50
2022-11-19T09:36:11.211Z,42.20
2022-11-19T09:38:39.264Z,42.35
2022-11-19T09:41:24.242Z,43.22
2022-11-19T09:44:24.647Z,40.30
2022-11-19T09:47:06.200Z,40.47
2022-11-19T09:50:16.222Z,41.40
2022-11-19T09:53:07.424Z,47.15
2022-11-19T09:55:36.465Z,42.13
2022-11-19T09:58:07.366Z,44.58
2022-11-19T10:00:33.995Z,38.20
2022-11-19T10:03:02.818Z,38.25
2022-11-19T10:05:48.290Z,36.15
2022-11-19T10:11:07.239Z,38.63
2022-11-19T10:14:07.656Z,35.53
2022-11-19T10:17:05.745Z,41.83
2022-11-19T10:20:01.499Z,35.20
2022-11-19T10:22:44.367Z,32.88
2022-11-19T10:25:17.892Z,37.70
2022-11-19T10:27:50.730Z,35.83
2022-11-19T10:30:23.227Z,37.50
2022-11-19T10:33:00.098Z,35.22
2022-11-19T10:35:32.387Z,34.72
2022-11-19T10:38:01.670Z,37.28
2022-11-19T10:40:58.546Z,36.72
2022-11-19T10:43:32.606Z,39.00
2022-11-19T10:46:01.181Z,36.08
2022-11-19T10:48:42.521Z,40.88
2022-11-19T10:51:23.708Z,39.88
2022-11-19T10:53:51.512Z,38.40
2022-11-19T10:56:20.779Z,38.70
2022-11-19T10:58:50.976Z,41.33
2022-11-19T11:01:28.132Z,43.03
2022-11-19T11:04:07.682Z,38.05
2022-11-19T11:06:49.471Z,36.13
2022-11-19T11:09:38.509Z,40.03
2022-11-19T11:12:35.753Z,38.67
2022-11-19T11:15:16.769Z,43.60
2022-11-19T11:17:46.107Z,43.08
2022-11-19T11:20:18.594Z,40.88
2022-11-19T11:22:47.092Z,38.45
2022-11-19T11:25:25.165Z,39.95
2022-11-19T11:28:17.011Z,40.38
2022-11-19T11:30:56.806Z,41.55
2022-11-19T11:33:35.359Z,39.50
2022-11-19T11:36:08.857Z,40.45
2022-11-19T11:38:44.240Z,40.25
2022-11-19T11:42:03.739Z,46.60
2022-11-19T11:44:02.752Z,46.35
2022-11-19T11:46:44.525Z,41.95
2022-11-19T11:49:38.066Z,45.97
2022-11-19T11:52:33.953Z,42.03
2022-11-19T11:57:29.175Z,40.58
2022-11-19T11:59:56.138Z,40.67
2022-11-19T12:02:31.479Z,40.92
2022-11-19T12:05:06.686Z,40.40
2022-11-19T12:10:30.287Z,39.30
2022-11-19T12:13:41.899Z,37.72
2022-11-19T12:16:30.184Z,36.10
2022-11-19T12:19:18.556Z,38.95
2022-11-19T12:22:07.308Z,38.92
2022-11-19T12:25:01.318Z,36.67
2022-11-19T12:27:36.787Z,40.17
2022-11-19T12:30:07.160Z,37.15
2022-11-19T12:32:55.410Z,40.60
2022-11-19T12:35:36.973Z,38.95
2022-11-19T12:38:19.751Z,39.33
2022-11-19T12:41:21.829Z,37.78
2022-11-19T12:44:02.153Z,39.25
2022-11-19T12:46:37.819Z,38.88
2022-11-19T12:49:41.629Z,34.33
2022-11-19T12:52:43.825Z,38.25
2022-11-19T12:55:27.446Z,36.78
2022-11-19T12:58:01.582Z,35.25
2022-11-19T13:00:29.578Z,36.67
2022-11-19T13:02:58.956Z,33.90
2022-11-19T13:05:44.023Z,36.15
2022-11-19T13:08:32.414Z,35.90
2022-11-19T13:11:23.072Z,35.33
2022-11-19T13:13:55.182Z,34.35
2022-11-19T13:16:22.720Z,31.02
2022-11-19T13:18:54.604Z,32.60
2022-11-19T13:21:35.075Z,30.00
2022-11-19T13:24:13.389Z,31.65
2022-11-19T13:26:39.905Z,33.08
2022-11-19T13:29:24.681Z,34.17
2022-11-19T13:32:02.102Z,33.65
2022-11-19T13:35:01.775Z,37.88
2022-11-19T13:37:38.016Z,35.60
2022-11-19T13:40:33.799Z,33.58
2022-11-19T13:43:34.697Z,32.67
2022-11-19T13:46:10.548Z,32.55
2022-11-19T13:49:09.535Z,31.60
2022-11-19T13:51:42.845Z,37.28
2022-11-19T13:54:09.716Z,34.25
2022-11-19T13:56:44.960Z,32.85
2022-11-19T13:59:26.142Z,32.95
2022-11-19T14:01:58.720Z,36.50
2022-11-19T14:04:38.355Z,30.60
2022-11-19T14:07:31.182Z,30.23
2022-11-19T14:10:23.435Z,28.27
2022-11-19T14:13:08.833Z,52.28
2022-11-19T14:16:33.877Z,31.02
2022-11-19T14:19:20.765Z,29.60
2022-11-19T14:22:31.425Z,32.33
2022-11-19T14:25:16.902Z,30.35
2022-11-19T14:30:15.215Z,25.73
2022-11-19T14:32:46.954Z,27.88
2022-11-19T14:35:30.216Z,24.73
2022-11-19T14:38:28.357Z,29.08
2022-11-19T14:41:08.346Z,27.85
2022-11-19T14:44:08.288Z,24.92
2022-11-19T14:46:36.272Z,25.08
2022-11-19T14:49:05.658Z,24.80
2022-11-19T14:51:35.242Z,24.33
2022-11-19T14:54:07.883Z,23.05
2022-11-19T14:56:37.330Z,21.38
2022-11-19T14:59:19.776Z,22.35
2022-11-19T15:01:57.825Z,26.02
2022-11-19T15:04:30.587Z,21.58
2022-11-19T15:06:57.439Z,21.08
2022-11-19T15:09:50.883Z,21.25
2022-11-19T15:12:21.533Z,25.75
2022-11-19T15:15:06.879Z,21.23
2022-11-19T15:17:35.269Z,22.17
2022-11-19T15:20:15.299Z,19.77
2022-11-19T15:22:48.170Z,25.10
2022-11-19T15:25:29.748Z,20.70
2022-11-19T15:28:02.260Z,23.23
2022-11-19T15:30:40.387Z,24.70
2022-11-19T15:33:28.397Z,21.40
2022-11-19T15:36:06.812Z,22.58
2022-11-19T15:38:38.036Z,23.88
2022-11-19T15:41:05.471Z,22.65
2022-11-19T15:43:41.081Z,31.17
2022-11-19T15:46:22.992Z,25.88
2022-11-19T15:49:11.211Z,22.25
2022-11-19T15:51:58.652Z,22.13
2022-11-19T15:54:33.345Z,21.10
2022-11-19T15:57:05.695Z,20.25
2022-11-19T15:59:35.521Z,21.48
2022-11-19T16:02:04.366Z,23.65
2022-11-19T16:04:40.056Z,31.42
2022-11-19T16:07:09.129Z,24.20
2022-11-19T16:09:35.886Z,22.88
2022-11-19T16:12:21.593Z,21.63
2022-11-19T16:15:11.235Z,25.15
2022-11-19T16:17:46.486Z,19.80
2022-11-19T16:20:13.061Z,42.05
2022-11-19T16:22:43.374Z,27.40
2022-11-19T16:25:16.875Z,21.55
2022-11-19T16:27:45.434Z,44.75
2022-11-19T16:30:23.453Z,25.58
2022-11-19T16:32:50.606Z,25.88
2022-11-19T16:35:25.877Z,22.08
2022-11-19T16:37:53.829Z,23.33
2022-11-19T16:40:20.642Z,23.45
2022-11-19T16:42:53.173Z,20.48
2022-11-19T16:45:25.593Z,22.63
2022-11-19T16:47:57.206Z,22.00
2022-11-19T16:50:32.587Z,21.20
2022-11-19T16:53:00.703Z,22.92
2022-11-19T16:55:28.787Z,20.08
2022-11-19T16:57:56.127Z,19.08
2022-11-19T17:00:25.051Z,20.70
2022-11-19T17:02:51.979Z,20.65
2022-11-19T17:05:20.813Z,21.38
2022-11-19T17:07:53.364Z,18.88
2022-11-19T17:10:23.050Z,20.40
2022-11-19T17:12:52.866Z,22.08
2022-11-19T17:15:36.808Z,20.33
2022-11-19T17:18:18.835Z,20.75
2022-11-19T17:20:45.868Z,19.85
2022-11-19T17:23:27.468Z,18.33
2022-11-19T17:26:06.686Z,32.97
2022-11-19T17:28:40.968Z,54.78
2022-11-19T17:31:18.394Z,23.20
2022-11-19T17:34:09.675Z,20.17
2022-11-19T17:36:36.572Z,19.05
2022-11-19T17:39:08.910Z,18.80
2022-11-19T17:41:54.306Z,18.02
2022-11-19T17:44:34.850Z,20.70
2022-11-19T17:47:24.752Z,15.55
2022-11-19T17:49:52.062Z,16.60
2022-11-19T17:52:29.618Z,17.13
2022-11-19T17:54:59.050Z,16.60
2022-11-19T17:57:25.653Z,15.65
2022-11-19T17:59:52.246Z,15.73
2022-11-19T18:02:20.522Z,15.68
2022-11-19T18:04:47.880Z,15.95
2022-11-19T18:07:14.529Z,19.63
2022-11-19T18:09:41.644Z,16.50
2022-11-19T18:12:14.227Z,15.07
2022-11-19T18:14:40.715Z,14.77
2022-11-19T18:17:10.639Z,17.80
2022-11-19T18:19:37.250Z,14.65
2022-11-19T18:22:03.801Z,16.45
2022-11-19T18:24:30.396Z,16.77
2022-11-19T18:26:56.951Z,13.75
2022-11-19T18:29:24.048Z,14.40
2022-11-19T18:31:51.267Z,15.35
2022-11-19T18:34:20.704Z,13.88
2022-11-19T18:36:47.614Z,14.18
2022-11-19T18:39:14.277Z,13.15
2022-11-19T18:41:41.163Z,14.57
2022-11-19T18:44:31.504Z,14.50
2022-11-19T18:46:58.022Z,15.93
2022-11-19T18:49:24.563Z,15.00
2022-11-19T18:51:51.152Z,13.32
2022-11-19T18:54:17.866Z,12.77
2022-11-19T18:56:44.756Z,13.57
2022-11-19T18:59:13.504Z,17.00
2022-11-19T19:01:40.280Z,15.25
2022-11-19T19:04:07.170Z,14.68
2022-11-19T19:06:33.655Z,14.15
2022-11-19T19:09:00.217Z,13.32
2022-11-19T19:11:44.873Z,15.88
2022-11-19T19:14:11.338Z,16.33
2022-11-19T19:16:37.842Z,14.40
2022-11-19T19:19:04.391Z,14.77
2022-11-19T19:21:30.995Z,13.65
2022-11-19T19:23:57.845Z,16.95
2022-11-19T19:26:24.440Z,15.68
2022-11-19T19:28:54.935Z,15.27
2022-11-19T19:31:22.627Z,15.68
2022-11-19T19:33:49.482Z,17.63
2022-11-19T19:36:16.946Z,16.08
2022-11-19T19:38:43.836Z,15.38
2022-11-19T19:41:13.361Z,17.23
2022-11-19T19:43:40.193Z,14.57
2022-11-19T19:46:09.762Z,16.52
2022-11-19T19:48:36.826Z,16.65
2022-11-19T19:51:03.929Z,17.00
2022-11-19T19:53:31.112Z,16.75
2022-11-19T19:56:05.122Z,17.08
2022-11-19T19:58:32.108Z,17.55
2022-11-19T20:01:08.765Z,17.45
2022-11-19T20:03:36.128Z,15.75
2022-11-19T20:06:03.581Z,20.02
2022-11-19T20:08:30.326Z,20.42
2022-11-19T20:11:04.976Z,18.55
2022-11-19T20:13:32.383Z,17.52
2022-11-19T20:16:08.523Z,25.02
2022-11-19T20:18:37.630Z,35.10
2022-11-19T20:21:05.830Z,25.60
2022-11-19T20:23:32.989Z,26.83
2022-11-19T20:26:01.834Z,20.20
2022-11-19T20:28:28.939Z,25.98
2022-11-19T20:31:04.002Z,21.83
2022-11-19T20:35:57.557Z,26.27
2022-11-19T20:38:24.436Z,22.20
2022-11-19T20:41:02.240Z,22.40
2022-11-19T20:43:52.543Z,24.35
2022-11-19T20:46:20.865Z,23.40
2022-11-19T20:48:48.702Z,22.38
2022-11-19T20:51:19.934Z,19.50
2022-11-19T20:53:46.894Z,21.10
2022-11-19T20:56:14.489Z,21.38
2022-11-19T20:58:41.065Z,21.73
2022-11-19T21:01:10.423Z,22.85
2022-11-19T21:03:37.501Z,18.98
2022-11-19T21:06:06.499Z,23.30
2022-11-19T21:08:33.793Z,23.13
2022-11-19T21:11:02.481Z,27.42
2022-11-19T21:13:29.722Z,24.17
2022-11-19T21:15:57.730Z,22.13
2022-11-19T21:18:25.074Z,20.90
2022-11-19T21:20:52.269Z,22.15
2022-11-19T21:23:21.932Z,20.73
2022-11-19T21:25:48.629Z,23.23
2022-11-19T21:28:15.241Z,21.35
2022-11-19T21:30:41.723Z,21.65
2022-11-19T21:33:08.360Z,20.67
2022-11-19T21:35:39.883Z,20.55
2022-11-19T21:38:11.850Z,20.83
2022-11-19T21:40:39.456Z,19.48
2022-11-19T21:43:07.016Z,21.90
2022-11-19T21:45:33.740Z,18.60
2022-11-19T21:48:00.215Z,19.55
2022-11-19T21:50:26.846Z,18.95
2022-11-19T21:52:53.452Z,18.17
2022-11-19T21:55:20.000Z,20.13
2022-11-19T21:57:46.552Z,19.90
2022-11-19T22:00:13.512Z,22.10
2022-11-19T22:02:40.331Z,21.15
2022-11-19T22:05:07.517Z,19.30
2022-11-19T22:07:34.336Z,18.30
2022-11-19T22:10:00.900Z,24.40
2022-11-19T22:12:27.541Z,24.38
2022-11-19T22:14:54.086Z,19.55
2022-11-19T22:17:20.722Z,23.80
2022-11-19T22:19:47.210Z,22.45
2022-11-19T22:22:13.760Z,22.10
2022-11-19T22:24:40.310Z,24.08
2022-11-19T22:27:06.781Z,18.27
2022-11-19T22:29:33.308Z,22.42
2022-11-19T22:31:59.799Z,22.25
2022-11-19T22:34:26.326Z,20.88
2022-11-19T22:36:52.820Z,19.45
2022-11-19T22:39:19.694Z,21.50
2022-11-19T22:41:46.499Z,19.17
2022-11-19T22:44:12.969Z,21.10
2022-11-19T22:46:39.429Z,23.77
2022-11-19T22:49:05.945Z,16.77
2022-11-19T22:51:32.386Z,19.85
2022-11-19T22:53:59.091Z,26.45
2022-11-19T22:56:28.072Z,25.10
2022-11-19T22:58:55.326Z,24.83
2022-11-19T23:01:27.880Z,24.65
2022-11-19T23:03:55.300Z,21.23
2022-11-19T23:06:23.115Z,21.75
2022-11-19T23:08:49.687Z,23.80
2022-11-19T23:11:37.772Z,21.98
2022-11-19T23:14:04.674Z,22.92
2022-11-19T23:16:31.168Z,21.58
2022-11-19T23:18:57.738Z,21.92
2022-11-19T23:21:26.722Z,19.80
2022-11-19T23:23:53.352Z,20.05
2022-11-19T23:26:25.022Z,22.33
2022-11-19T23:28:52.296Z,24.38
2022-11-19T23:31:28.590Z,19.80
2022-11-19T23:33:59.026Z,24.38
2022-11-19T23:36:34.634Z,21.75
2022-11-19T23:41:31.635Z,20.45
2022-11-19T23:43:58.127Z,20.73
2022-11-19T23:46:27.403Z,22.02
2022-11-19T23:48:55.174Z,21.02
2022-11-19T23:51:41.909Z,20.35
2022-11-19T23:54:08.496Z,23.17
2022-11-19T23:56:36.070Z,25.23
2022-11-19T23:59:04.162Z,24.52
